createdAt,value
2017-09-10T00:02:09.516Z,99382.05
2017-09-10T00:04:36.654Z,99383.77
2017-09-10T00:07:03.829Z,99382.45
2017-09-10T00:09:30.982Z,99385.89
2017-09-10T00:11:58.132Z,99384.24
2017-09-10T00:14:25.268Z,99389.88
2017-09-10T00:16:52.419Z,99390.30
2017-09-10T00:19:19.596Z,99395.11
2017-09-10T00:21:46.724Z,99388.17
2017-09-10T00:24:13.861Z,99396.00
2017-09-10T00:26:41.024Z,99398.20
2017-09-10T00:29:08.180Z,99398.20
2017-09-10T00:31:35.313Z,99400.81
2017-09-10T00:34:02.468Z,99400.44
2017-09-10T00:36:29.604Z,99400.03
2017-09-10T00:38:56.742Z,99400.44
2017-09-10T00:41:23.877Z,99401.75
2017-09-10T00:43:51.009Z,99398.62
2017-09-10T00:46:18.142Z,99399.13
2017-09-10T00:48:45.273Z,99401.23
2017-09-10T00:51:12.428Z,99398.62
2017-09-10T00:53:39.569Z,99401.75
2017-09-10T00:56:06.697Z,99401.33
2017-09-10T00:58:33.856Z,99402.54
2017-09-10T01:01:01.004Z,99405.16
2017-09-10T01:03:28.141Z,99404.36
2017-09-10T01:05:55.278Z,99401.33
2017-09-10T01:08:23.199Z,99413.50
2017-09-10T01:10:50.368Z,99413.98
2017-09-10T01:13:17.501Z,99415.70
2017-09-10T01:15:44.643Z,99422.23
2017-09-10T01:18:11.783Z,99421.34
2017-09-10T01:20:38.926Z,99431.86
2017-09-10T01:23:06.080Z,99436.61
2017-09-10T01:25:33.244Z,99436.20
2017-09-10T01:28:00.396Z,99443.94
2017-09-10T01:30:27.552Z,99439.22
2017-09-10T01:32:54.701Z,99440.94
2017-09-10T01:35:21.845Z,99437.91
2017-09-10T01:37:48.984Z,99454.01
2017-09-10T01:40:16.132Z,99454.08
2017-09-10T01:42:43.291Z,99448.37
2017-09-10T01:45:10.444Z,99448.37
2017-09-10T01:47:37.581Z,99452.70
2017-09-10T01:50:04.713Z,99446.72
2017-09-10T01:52:31.837Z,99456.21
2017-09-10T01:54:59.000Z,99444.04
2017-09-10T01:57:26.156Z,99444.86
2017-09-10T01:59:53.290Z,99451.39
2017-09-10T02:02:20.452Z,99456.21
2017-09-10T02:04:47.589Z,99454.48
2017-09-10T02:07:14.729Z,99450.09
2017-09-10T02:09:41.875Z,99448.37
2017-09-10T02:12:09.019Z,99451.39
2017-09-10T02:14:36.171Z,99452.70
2017-09-10T02:17:03.324Z,99452.77
2017-09-10T02:19:30.469Z,99460.54
2017-09-10T02:21:57.602Z,99454.97
2017-09-10T02:24:24.734Z,99461.02
2017-09-10T02:26:51.891Z,99471.48
2017-09-10T02:29:19.021Z,99479.31
2017-09-10T02:31:46.168Z,99474.09
2017-09-10T02:34:13.306Z,99475.80
2017-09-10T02:36:40.438Z,99473.67
2017-09-10T02:39:08.345Z,99472.44
2017-09-10T02:41:35.495Z,99471.12
2017-09-10T02:44:02.648Z,99468.11
2017-09-10T02:46:29.781Z,99472.02
2017-09-10T02:48:56.921Z,99478.56
2017-09-10T02:51:24.062Z,99487.22
2017-09-10T02:53:51.194Z,99482.00
2017-09-10T02:56:18.347Z,99488.53
2017-09-10T02:58:45.497Z,99490.73
2017-09-10T03:01:12.647Z,99492.86
2017-09-10T03:03:39.777Z,99493.69
2017-09-10T03:06:06.926Z,99498.56
2017-09-10T03:08:34.084Z,99498.91
2017-09-10T03:11:01.222Z,99508.95
2017-09-10T03:13:28.380Z,99503.80
2017-09-10T03:15:55.523Z,99512.94
2017-09-10T03:18:22.684Z,99511.98
2017-09-10T03:20:49.825Z,99509.44
2017-09-10T03:23:16.956Z,99506.00
2017-09-10T03:25:44.103Z,99510.81
2017-09-10T03:28:11.228Z,99509.02
2017-09-10T03:30:38.362Z,99517.75
2017-09-10T03:33:06.281Z,99519.89
2017-09-10T03:35:33.409Z,99515.97
2017-09-10T03:38:00.554Z,99509.44
2017-09-10T03:40:27.704Z,99510.33
2017-09-10T03:42:54.850Z,99501.18
2017-09-10T03:45:22.030Z,99517.75
2017-09-10T03:47:49.176Z,99524.77
2017-09-10T03:50:16.328Z,99524.77
2017-09-10T03:52:43.481Z,99515.63
2017-09-10T03:55:10.632Z,99517.75
2017-09-10T03:57:37.784Z,99517.75
2017-09-10T04:00:04.944Z,99529.10
2017-09-10T04:02:32.099Z,99529.52
2017-09-10T04:04:59.238Z,99529.10
2017-09-10T04:07:26.374Z,99530.82
2017-09-10T04:09:53.513Z,99532.12
2017-09-10T04:12:20.646Z,99537.77
2017-09-10T04:14:47.800Z,99534.81
2017-09-10T04:17:14.952Z,99536.53
2017-09-10T04:19:42.117Z,99534.81
2017-09-10T04:22:09.247Z,99533.50
2017-09-10T04:24:36.401Z,99532.20
2017-09-10T04:27:03.538Z,99529.58
2017-09-10T04:29:30.684Z,99536.59
2017-09-10T04:31:57.818Z,99536.53
2017-09-10T04:34:24.950Z,99533.09
2017-09-10T04:36:52.100Z,99533.50
2017-09-10T04:39:19.237Z,99531.37
2017-09-10T04:41:46.396Z,99537.08
2017-09-10T04:44:13.529Z,99540.52
2017-09-10T04:46:40.678Z,99545.74
2017-09-10T04:49:07.831Z,99550.14
2017-09-10T04:51:34.985Z,99551.86
2017-09-10T04:54:02.126Z,99560.11
2017-09-10T04:56:29.288Z,99555.78
2017-09-10T04:58:56.444Z,99560.11
2017-09-10T05:01:23.583Z,99558.39
2017-09-10T05:03:50.740Z,99560.59
2017-09-10T05:06:17.892Z,99568.44
2017-09-10T05:08:45.026Z,99566.23
2017-09-10T05:11:12.188Z,99574.08
2017-09-10T05:13:39.326Z,99577.16
2017-09-10T05:16:06.457Z,99570.22
2017-09-10T05:18:33.593Z,99571.94
2017-09-10T05:21:00.755Z,99572.84
2017-09-10T05:23:27.897Z,99580.67
2017-09-10T05:25:55.047Z,99581.09
2017-09-10T05:28:22.199Z,99579.37
2017-09-10T05:30:49.351Z,99581.91
2017-09-10T05:33:16.511Z,99582.87
2017-09-10T05:35:43.654Z,99585.48
2017-09-10T05:38:10.797Z,99590.71
2017-09-10T05:40:37.939Z,99592.44
2017-09-10T05:43:05.092Z,99601.58
2017-09-10T05:45:32.243Z,99599.86
2017-09-10T05:47:59.398Z,99602.41
2017-09-10T05:50:26.546Z,99602.89
2017-09-10T05:52:53.686Z,99610.31
2017-09-10T05:55:20.844Z,99616.84
2017-09-10T05:57:47.990Z,99619.87
2017-09-10T06:00:15.151Z,99625.52
2017-09-10T06:02:42.300Z,99631.56
2017-09-10T06:05:09.429Z,99628.95
2017-09-10T06:07:36.577Z,99630.73
2017-09-10T06:10:03.727Z,99636.03
2017-09-10T06:12:30.869Z,99634.24
2017-09-10T06:14:58.020Z,99631.62
2017-09-10T06:17:25.951Z,99626.81
2017-09-10T06:19:53.106Z,99630.73
2017-09-10T06:22:20.256Z,99636.45
2017-09-10T06:24:48.529Z,99631.28
2017-09-10T06:27:15.664Z,99635.14
2017-09-10T06:29:42.792Z,99643.80
2017-09-10T06:32:09.930Z,99636.51
2017-09-10T06:34:37.075Z,99638.71
2017-09-10T06:37:04.232Z,99638.23
2017-09-10T06:39:31.432Z,99638.64
2017-09-10T06:41:58.562Z,99639.95
2017-09-10T06:44:25.696Z,99641.33
2017-09-10T06:46:52.834Z,99646.06
2017-09-10T06:49:19.984Z,99650.81
2017-09-10T06:51:47.115Z,99649.52
2017-09-10T06:54:15.044Z,99646.48
2017-09-10T06:56:42.204Z,99641.73
2017-09-10T06:59:09.345Z,99636.45
2017-09-10T07:01:36.500Z,99639.12
2017-09-10T07:04:03.656Z,99639.53
2017-09-10T07:06:30.798Z,99636.51
2017-09-10T07:08:57.948Z,99643.45
2017-09-10T07:11:25.100Z,99646.06
2017-09-10T07:13:52.257Z,99649.58
2017-09-10T07:16:19.423Z,99650.88
2017-09-10T07:18:46.557Z,99644.77
2017-09-10T07:21:13.701Z,99646.90
2017-09-10T07:23:41.006Z,99647.79
2017-09-10T07:26:08.150Z,99642.15
2017-09-10T07:28:35.290Z,99642.63
2017-09-10T07:31:02.425Z,99644.35
2017-09-10T07:33:30.344Z,99646.96
2017-09-10T07:35:57.494Z,99645.66
2017-09-10T07:38:24.660Z,99651.78
2017-09-10T07:40:51.815Z,99652.19
2017-09-10T07:43:18.972Z,99648.75
2017-09-10T07:45:46.110Z,99641.80
2017-09-10T07:48:13.259Z,99639.19
2017-09-10T07:50:40.402Z,99649.16
2017-09-10T07:53:07.541Z,99652.19
2017-09-10T07:55:34.706Z,99645.72
2017-09-10T07:58:01.833Z,99650.95
2017-09-10T08:00:28.988Z,99654.39
2017-09-10T08:02:56.147Z,99649.16
2017-09-10T08:05:23.283Z,99647.03
2017-09-10T08:07:50.456Z,99649.64
2017-09-10T08:10:17.650Z,99650.53
2017-09-10T08:12:44.790Z,99647.44
2017-09-10T08:15:11.937Z,99642.63
2017-09-10T08:17:39.072Z,99641.73
2017-09-10T08:20:06.256Z,99640.91
2017-09-10T08:22:33.416Z,99637.41
2017-09-10T08:25:00.554Z,99643.52
2017-09-10T08:27:27.807Z,99645.24
2017-09-10T08:29:54.954Z,99652.19
2017-09-10T08:32:22.867Z,99647.44
2017-09-10T08:34:50.002Z,99652.73
2017-09-10T08:37:17.183Z,99643.05
2017-09-10T08:39:44.341Z,99644.41
2017-09-10T08:42:11.506Z,99644.00
2017-09-10T08:44:38.663Z,99645.31
2017-09-10T08:47:05.796Z,99650.53
2017-09-10T08:49:32.935Z,99645.72
2017-09-10T08:52:00.106Z,99644.41
2017-09-10T08:54:27.248Z,99639.67
2017-09-10T08:56:54.407Z,99646.20
2017-09-10T08:59:21.553Z,99649.64
2017-09-10T09:01:48.690Z,99653.97
2017-09-10T09:04:15.844Z,99658.37
2017-09-10T09:06:42.998Z,99653.97
2017-09-10T09:09:10.146Z,99654.87
2017-09-10T09:11:37.291Z,99649.64
2017-09-10T09:14:04.426Z,99648.34
2017-09-10T09:16:31.570Z,99655.77
2017-09-10T09:18:58.723Z,99650.95
2017-09-10T09:21:25.874Z,99650.53
2017-09-10T09:23:53.001Z,99656.66
2017-09-10T09:26:20.142Z,99658.37
2017-09-10T09:28:47.295Z,99650.53
2017-09-10T09:31:14.451Z,99644.06
2017-09-10T09:33:41.587Z,99644.89
2017-09-10T09:36:08.721Z,99647.58
2017-09-10T09:38:35.849Z,99651.84
2017-09-10T09:41:02.988Z,99657.89
2017-09-10T09:43:30.141Z,99655.77
2017-09-10T09:45:57.282Z,99653.62
2017-09-10T09:48:24.418Z,99652.32
2017-09-10T09:50:51.584Z,99654.11
2017-09-10T09:53:18.749Z,99654.94
2017-09-10T09:55:45.890Z,99648.41
2017-09-10T09:58:13.048Z,99653.62
2017-09-10T10:00:40.182Z,99649.70
2017-09-10T10:03:08.085Z,99645.79
2017-09-10T10:05:35.234Z,99649.70
2017-09-10T10:08:02.399Z,99653.56
2017-09-10T10:10:29.547Z,99651.02
2017-09-10T10:12:56.682Z,99645.38
2017-09-10T10:15:23.831Z,99647.98
2017-09-10T10:17:50.986Z,99646.68
2017-09-10T10:20:18.129Z,99640.15
2017-09-10T10:22:45.279Z,99642.77
2017-09-10T10:25:12.432Z,99636.23
2017-09-10T10:27:39.877Z,99643.66
2017-09-10T10:30:07.030Z,99637.53
2017-09-10T10:32:34.168Z,99634.03
2017-09-10T10:35:01.312Z,99636.30
2017-09-10T10:37:28.453Z,99638.50
2017-09-10T10:39:55.585Z,99635.81
2017-09-10T10:42:22.772Z,99631.90
2017-09-10T10:44:49.910Z,99629.28
2017-09-10T10:47:17.048Z,99631.00
2017-09-10T10:49:44.196Z,99634.92
2017-09-10T10:52:11.320Z,99639.73
2017-09-10T10:54:38.469Z,99635.41
2017-09-10T10:57:05.609Z,99634.51
2017-09-10T10:59:32.755Z,99631.48
2017-09-10T11:01:59.913Z,99636.30
2017-09-10T11:04:27.049Z,99633.20
2017-09-10T11:06:54.204Z,99627.56
2017-09-10T11:09:21.362Z,99623.64
2017-09-10T11:11:48.539Z,99612.36
2017-09-10T11:14:15.723Z,99614.09
2017-09-10T11:16:42.888Z,99604.53
2017-09-10T11:19:10.027Z,99612.84
2017-09-10T11:21:37.184Z,99614.91
2017-09-10T11:24:04.313Z,99611.88
2017-09-10T11:26:31.466Z,99610.65
2017-09-10T11:28:58.605Z,99609.75
2017-09-10T11:31:25.745Z,99608.86
2017-09-10T11:33:52.880Z,99606.31
2017-09-10T11:36:20.045Z,99607.07
2017-09-10T11:38:47.201Z,99605.42
2017-09-10T11:41:14.332Z,99606.72
2017-09-10T11:43:41.471Z,99601.91
2017-09-10T11:46:08.614Z,99598.47
2017-09-10T11:48:35.749Z,99601.91
2017-09-10T11:51:02.899Z,99594.97
2017-09-10T11:53:30.060Z,99601.91
2017-09-10T11:55:57.215Z,99592.77
2017-09-10T11:58:24.359Z,99591.88
2017-09-10T12:00:51.494Z,99588.44
2017-09-10T12:03:18.661Z,99587.06
2017-09-10T12:05:45.840Z,99579.29
2017-09-10T12:08:12.978Z,99584.52
2017-09-10T12:10:41.106Z,99575.38
2017-09-10T12:13:08.246Z,99584.93
2017-09-10T12:15:35.394Z,99580.59
2017-09-10T12:18:02.546Z,99577.57
2017-09-10T12:20:29.693Z,99573.17
2017-09-10T12:22:56.838Z,99564.03
2017-09-10T12:25:23.997Z,99564.92
2017-09-10T12:27:51.137Z,99560.17
2017-09-10T12:30:18.283Z,99561.10
2017-09-10T12:32:45.428Z,99561.10
2017-09-10T12:35:12.575Z,99561.00
2017-09-10T12:37:39.718Z,99558.39
2017-09-10T12:40:06.865Z,99557.17
2017-09-10T12:42:34.028Z,99560.59
2017-09-10T12:45:01.181Z,99561.00
2017-09-10T12:47:28.486Z,99557.97
2017-09-10T12:49:55.639Z,99558.87
2017-09-10T12:52:22.792Z,99559.28
2017-09-10T12:54:49.945Z,99560.17
2017-09-10T12:57:17.079Z,99555.36
2017-09-10T12:59:44.238Z,99552.75
2017-09-10T13:02:11.398Z,99551.44
2017-09-10T13:04:38.557Z,99550.96
2017-09-10T13:07:05.707Z,99550.13
2017-09-10T13:09:32.836Z,99541.41
2017-09-10T13:11:59.985Z,99531.84
2017-09-10T13:14:27.118Z,99531.84
2017-09-10T13:16:54.268Z,99532.73
2017-09-10T13:19:21.420Z,99537.07
2017-09-10T13:21:48.576Z,99540.20
2017-09-10T13:24:15.714Z,99535.35
2017-09-10T13:26:43.639Z,99539.68
2017-09-10T13:29:10.795Z,99531.84
2017-09-10T13:31:37.944Z,99518.47
2017-09-10T13:34:05.089Z,99520.98
2017-09-10T13:36:32.243Z,99509.63
2017-09-10T13:38:59.400Z,99514.96
2017-09-10T13:41:26.607Z,99503.62
2017-09-10T13:43:53.774Z,99511.84
2017-09-10T13:46:20.908Z,99506.61
2017-09-10T13:48:48.059Z,99513.55
2017-09-10T13:51:15.201Z,99511.05
2017-09-10T13:53:42.399Z,99508.84
2017-09-10T13:56:09.545Z,99512.25
2017-09-10T13:58:36.682Z,99500.59
2017-09-10T14:01:03.832Z,99503.62
2017-09-10T14:03:30.977Z,99492.75
2017-09-10T14:05:58.161Z,99497.98
2017-09-10T14:08:25.317Z,99493.55
2017-09-10T14:10:53.222Z,99489.24
2017-09-10T14:13:20.376Z,99496.16
2017-09-10T14:15:47.728Z,99484.40
2017-09-10T14:18:14.883Z,99477.87
2017-09-10T14:20:42.034Z,99483.09
2017-09-10T14:23:09.179Z,99482.30
2017-09-10T14:25:36.309Z,99483.19
2017-09-10T14:28:03.460Z,99493.55
2017-09-10T14:30:31.375Z,99484.02
2017-09-10T14:32:58.524Z,99491.45
2017-09-10T14:35:25.683Z,99483.92
2017-09-10T14:37:52.818Z,99479.59
2017-09-10T14:40:19.950Z,99479.17
2017-09-10T14:42:47.094Z,99475.66
2017-09-10T14:45:14.244Z,99473.95
2017-09-10T14:47:41.404Z,99471.84
2017-09-10T14:50:09.057Z,99473.16
2017-09-10T14:52:36.213Z,99480.99
2017-09-10T14:55:03.969Z,99483.61
2017-09-10T14:57:31.141Z,99479.17
2017-09-10T14:59:58.304Z,99484.40
2017-09-10T15:02:26.396Z,99474.87
2017-09-10T15:04:53.597Z,99487.02
2017-09-10T15:07:20.737Z,99487.94
2017-09-10T15:09:47.899Z,99478.80
2017-09-10T15:12:15.042Z,99485.39
2017-09-10T15:14:43.110Z,99484.02
2017-09-10T15:17:10.465Z,99480.99
2017-09-10T15:19:37.606Z,99477.97
2017-09-10T15:22:04.766Z,99483.61
2017-09-10T15:24:31.931Z,99472.74
2017-09-10T15:26:59.152Z,99479.17
2017-09-10T15:29:27.384Z,99476.18
2017-09-10T15:31:55.143Z,99476.18
2017-09-10T15:34:23.258Z,99468.83
2017-09-10T15:36:50.433Z,99473.22
2017-09-10T15:39:18.250Z,99468.41
2017-09-10T15:41:45.703Z,99466.69
2017-09-10T15:44:13.115Z,99468.00
2017-09-10T15:46:40.448Z,99468.83
2017-09-10T15:49:07.938Z,99469.72
2017-09-10T15:51:35.117Z,99474.46
2017-09-10T15:54:02.268Z,99474.46
2017-09-10T15:56:29.459Z,99462.29
2017-09-10T15:58:56.967Z,99469.64
2017-09-10T16:01:24.144Z,99461.47
2017-09-10T16:03:51.282Z,99461.88
2017-09-10T16:06:19.306Z,99462.70
2017-09-10T16:08:46.464Z,99461.47
2017-09-10T16:11:13.605Z,99456.66
2017-09-10T16:13:40.749Z,99456.23
2017-09-10T16:16:08.430Z,99456.66
2017-09-10T16:18:36.199Z,99454.93
2017-09-10T16:21:04.192Z,99438.84
2017-09-10T16:23:31.855Z,99431.41
2017-09-10T16:26:00.192Z,99435.75
2017-09-10T16:28:28.046Z,99437.53
2017-09-10T16:30:55.720Z,99429.22
2017-09-10T16:33:23.488Z,99419.25
2017-09-10T16:35:50.668Z,99417.05
2017-09-10T16:38:17.820Z,99418.28
2017-09-10T16:40:44.961Z,99425.30
2017-09-10T16:43:12.098Z,99423.09
2017-09-10T16:45:39.244Z,99419.18
2017-09-10T16:48:06.412Z,99419.66
2017-09-10T16:50:33.569Z,99420.07
2017-09-10T16:53:02.169Z,99420.48
2017-09-10T16:55:29.473Z,99425.30
2017-09-10T16:57:57.445Z,99423.17
2017-09-10T17:00:24.843Z,99417.94
2017-09-10T17:02:52.426Z,99415.67
2017-09-10T17:05:19.813Z,99415.74
2017-09-10T17:07:46.977Z,99419.25
2017-09-10T17:10:14.131Z,99406.11
2017-09-10T17:12:41.282Z,99406.59
2017-09-10T17:15:08.704Z,99404.88
2017-09-10T17:17:35.858Z,99411.41
2017-09-10T17:20:03.003Z,99405.29
2017-09-10T17:22:30.160Z,99413.82
2017-09-10T17:24:57.295Z,99405.43
2017-09-10T17:27:25.213Z,99410.59
2017-09-10T17:29:52.364Z,99404.05
2017-09-10T17:32:19.517Z,99409.69
2017-09-10T17:34:46.654Z,99399.66
2017-09-10T17:37:13.798Z,99397.04
2017-09-10T17:39:40.952Z,99398.34
2017-09-10T17:42:08.093Z,99403.57
2017-09-10T17:44:35.246Z,99395.32
2017-09-10T17:47:02.547Z,99393.13
2017-09-10T17:49:29.700Z,99389.20
2017-09-10T17:51:56.862Z,99388.79
2017-09-10T17:54:24.898Z,99384.45
2017-09-10T17:56:52.462Z,99384.05
2017-09-10T17:59:20.107Z,99387.97
2017-09-10T18:01:47.297Z,99388.79
2017-09-10T18:04:15.258Z,99384.05
2017-09-10T18:06:42.422Z,99381.02
2017-09-10T18:09:09.562Z,99384.45
2017-09-10T18:11:36.719Z,99378.82
2017-09-10T18:14:04.766Z,99371.47
2017-09-10T18:16:31.931Z,99374.42
2017-09-10T18:19:00.100Z,99369.33
2017-09-10T18:21:28.061Z,99373.59
2017-09-10T18:23:56.114Z,99374.48
2017-09-10T18:26:23.423Z,99381.84
2017-09-10T18:28:51.520Z,99377.10
2017-09-10T18:31:18.883Z,99376.20
2017-09-10T18:33:47.655Z,99378.82
2017-09-10T18:36:14.887Z,99379.23
2017-09-10T18:38:43.530Z,99382.33
2017-09-10T18:41:12.399Z,99380.12
2017-09-10T18:43:41.149Z,99368.37
2017-09-10T18:46:09.779Z,99363.21
2017-09-10T18:48:37.330Z,99362.32
2017-09-10T18:51:04.947Z,99346.23
2017-09-10T18:53:32.228Z,99344.03
2017-09-10T18:55:59.386Z,99344.52
2017-09-10T18:58:26.586Z,99340.11
2017-09-10T19:00:54.297Z,99340.11
2017-09-10T19:03:21.474Z,99334.81
2017-09-10T19:05:49.911Z,99336.61
2017-09-10T19:08:17.525Z,99328.84
2017-09-10T19:10:45.672Z,99332.69
2017-09-10T19:13:14.408Z,99326.56
2017-09-10T19:15:42.416Z,99323.06
2017-09-10T19:18:11.196Z,99328.28
2017-09-10T19:20:39.723Z,99327.95
2017-09-10T19:23:08.125Z,99327.46
2017-09-10T19:25:35.966Z,99326.16
2017-09-10T19:28:04.311Z,99320.52
2017-09-10T19:30:32.639Z,99313.16
2017-09-10T19:33:00.663Z,99314.87
2017-09-10T19:35:29.099Z,99307.45
2017-09-10T19:37:57.747Z,99295.70
2017-09-10T19:40:25.628Z,99300.92
2017-09-10T19:42:54.284Z,99289.98
2017-09-10T19:45:22.469Z,99293.08
2017-09-10T19:47:50.762Z,99279.61
2017-09-10T19:50:18.158Z,99274.39
2017-09-10T19:52:45.642Z,99263.52
2017-09-10T19:55:12.817Z,99257.41
2017-09-10T19:57:39.980Z,99244.34
2017-09-10T20:00:07.705Z,99237.40
2017-09-10T20:02:35.660Z,99245.72
2017-09-10T20:05:03.709Z,99244.83
2017-09-10T20:07:31.458Z,99240.49
2017-09-10T20:09:58.629Z,99247.84
2017-09-10T20:12:25.901Z,99243.52
2017-09-10T20:14:53.075Z,99246.13
2017-09-10T20:17:21.443Z,99243.11
2017-09-10T20:19:48.660Z,99237.40
2017-09-10T20:22:15.850Z,99233.06
2017-09-10T20:24:43.008Z,99220.00
2017-09-10T20:27:10.349Z,99222.62
2017-09-10T20:29:37.781Z,99215.27
2017-09-10T20:32:06.424Z,99211.75
2017-09-10T20:34:34.374Z,99209.14
2017-09-10T20:37:01.514Z,99216.98
2017-09-10T20:39:28.697Z,99219.18
2017-09-10T20:41:55.838Z,99213.13
2017-09-10T20:44:22.993Z,99212.23
2017-09-10T20:46:50.603Z,99213.55
2017-09-10T20:49:18.384Z,99209.22
2017-09-10T20:51:45.528Z,99201.78
2017-09-10T20:54:12.682Z,99199.59
2017-09-10T20:56:39.818Z,99193.47
2017-09-10T20:59:07.420Z,99187.42
2017-09-10T21:01:34.563Z,99176.97
2017-09-10T21:04:01.697Z,99175.66
2017-09-10T21:06:28.828Z,99182.61
2017-09-10T21:08:55.966Z,99173.53
2017-09-10T21:11:23.100Z,99177.80
2017-09-10T21:13:50.256Z,99175.66
2017-09-10T21:16:17.421Z,99170.44
2017-09-10T21:18:44.583Z,99171.75
2017-09-10T21:21:11.968Z,99174.84
2017-09-10T21:23:39.132Z,99164.39
2017-09-10T21:26:06.298Z,99159.91
2017-09-10T21:28:33.477Z,99163.84
2017-09-10T21:31:00.626Z,99158.61
2017-09-10T21:33:27.766Z,99157.38
2017-09-10T21:35:54.905Z,99148.23
2017-09-10T21:38:22.046Z,99148.23
2017-09-10T21:40:49.958Z,99139.58
2017-09-10T21:43:17.119Z,99139.09
2017-09-10T21:45:44.279Z,99131.66
2017-09-10T21:48:11.436Z,99125.62
2017-09-10T21:50:38.585Z,99117.37
2017-09-10T21:53:05.730Z,99111.73
2017-09-10T21:55:32.888Z,99106.02
2017-09-10T21:58:00.026Z,99122.11
2017-09-10T22:00:27.184Z,99135.17
2017-09-10T22:02:54.326Z,99106.92
2017-09-10T22:05:21.479Z,99110.35
2017-09-10T22:07:48.615Z,99113.52
2017-09-10T22:10:15.750Z,99109.13
2017-09-10T22:12:42.884Z,99111.25
2017-09-10T22:15:10.018Z,99117.37
2017-09-10T22:17:37.184Z,99096.47
2017-09-10T22:20:04.349Z,99090.83
2017-09-10T22:22:31.505Z,99092.14
2017-09-10T22:24:58.655Z,99083.41
2017-09-10T22:27:25.903Z,99082.52
2017-09-10T22:29:53.817Z,99085.13
2017-09-10T22:32:21.942Z,99072.95
2017-09-10T22:34:49.099Z,99069.04
2017-09-10T22:37:16.260Z,99058.59
2017-09-10T22:39:43.407Z,99067.32
2017-09-10T22:42:10.564Z,99062.09
2017-09-10T22:44:37.718Z,99056.87
2017-09-10T22:47:04.868Z,99060.38
2017-09-10T22:49:32.069Z,99072.55
2017-09-10T22:51:59.219Z,99067.73
2017-09-10T22:54:26.377Z,99049.11
2017-09-10T22:56:54.300Z,99055.56
2017-09-10T22:59:21.456Z,99041.75
2017-09-10T23:01:48.597Z,99037.77
2017-09-10T23:04:15.733Z,99044.30
2017-09-10T23:06:42.875Z,99032.20
2017-09-10T23:09:10.018Z,99035.15
2017-09-10T23:11:38.615Z,99026.08
2017-09-10T23:14:06.605Z,99026.91
2017-09-10T23:16:33.749Z,99022.16
2017-09-10T23:19:00.899Z,99019.97
2017-09-10T23:21:28.443Z,99011.30
2017-09-10T23:23:55.623Z,99012.13
2017-09-10T23:26:22.762Z,99001.75
2017-09-10T23:28:50.239Z,98998.66
2017-09-10T23:31:17.721Z,98986.48
2017-09-10T23:33:44.889Z,98987.23
2017-09-10T23:36:12.114Z,98972.94
2017-09-10T23:38:39.277Z,98975.55
2017-09-10T23:41:06.436Z,98981.19
2017-09-10T23:43:33.573Z,98960.37
2017-09-10T23:46:00.723Z,98957.34
2017-09-10T23:48:27.861Z,98965.18
2017-09-10T23:50:54.997Z,98949.50
2017-09-10T23:53:22.139Z,98951.22
2017-09-10T23:55:49.288Z,98942.97
2017-09-10T23:58:16.674Z,98938.65
